aviador You're here:

KMHS Decoded Metar

MOUNT SHASTA in CA, USA
Report Time2018-02-25 14:56:00
UTC Time2018-02-25 15:13:55
Flight Rules vfr VFR
WindCalm
Visibility9656 m
Phenomena:Haze
Clouds:Overcast 090 Hf
Expected CloudBase > 1,200 ft AGL from Temp-Dew spread
Ceiling9,000 ft
Temp-3°C (ISA -11)
Dew Point-6°C (80% RH)
AAT-5.7°C
QNH1024 hPa
Density Alt1,890 ft
Elevation3,537 ft
Report Wrong Elevation
Raw Report
METAR KMHS 251456Z AUTO 00000KT 6SM HZ OVC090 M03/M06 A3023 RMK AO2
SLP277 T10281056 56006=

Extra information for KMHS:More info

Metar Taf Metar & Taf Last 4 Metars F.Rules Stats Wind Profile Meteogram Temp Stats Airport Information Weather charts Add Link Nearby VenuesMetar ALERT Operation Metar Decoded Social comments

AIRNAV info for KMHS